Time;durP1;ratioP1;P1;durP2;ratioP2;P2;SDS_P1;SDS_P2;PMS_P1;PMS_P2;Temp;Humidity;BMP_temperature;BMP_pressure;BME280_temperature;BME280_humidity;BME280_pressure;Samples;Min_cycle;Max_cycle;Signal;HPM_P1;HPM_P2
2023/09/24 00:01:12;;;;;;;10.65;5.80;;;12.30;99.90;;;;;;4995311;28;20038;-64
2023/09/24 00:03:38;;;;;;;10.40;7.57;;;12.40;99.90;;;;;;5066901;28;20047;-64
2023/09/24 00:06:09;;;;;;;14.15;10.85;;;12.40;99.90;;;;;;5068542;28;20037;-64
2023/09/24 00:08:35;;;;;;;18.48;11.90;;;12.40;99.90;;;;;;5000183;28;20084;-64
2023/09/24 00:11:02;;;;;;;17.30;11.35;;;12.40;99.90;;;;;;5067715;28;20045;-64
2023/09/24 00:13:28;;;;;;;20.42;13.32;;;12.40;99.90;;;;;;5068312;28;20056;-64
2023/09/24 00:15:54;;;;;;;17.10;11.50;;;12.30;99.90;;;;;;5063882;28;20088;-64
2023/09/24 00:18:20;;;;;;;16.00;12.48;;;12.40;99.90;;;;;;5063464;28;20041;-64
2023/09/24 00:20:46;;;;;;;20.65;13.40;;;12.40;99.90;;;;;;5063444;28;20042;-64
2023/09/24 00:23:12;;;;;;;22.45;13.95;;;12.40;99.90;;;;;;5064592;28;20046;-64
2023/09/24 00:25:38;;;;;;;18.35;12.40;;;12.40;99.90;;;;;;4997433;28;20030;-63
2023/09/24 00:28:09;;;;;;;19.55;11.77;;;12.40;99.90;;;;;;4998358;28;20053;-63
2023/09/24 00:30:36;;;;;;;16.33;11.00;;;12.30;99.90;;;;;;5064404;28;20042;-64
2023/09/24 00:33:03;;;;;;;13.80;9.38;;;12.30;99.90;;;;;;5071908;28;20046;-64
2023/09/24 00:35:30;;;;;;;9.82;7.78;;;12.30;99.90;;;;;;5063536;28;20050;-64
2023/09/24 00:37:55;;;;;;;10.73;7.20;;;12.30;99.90;;;;;;4995796;28;20042;-64
2023/09/24 00:40:21;;;;;;;8.18;6.95;;;12.30;99.90;;;;;;5066800;28;20403;-64
2023/09/24 00:42:47;;;;;;;6.70;6.00;;;12.30;99.90;;;;;;5066157;28;20034;-64
2023/09/24 00:45:14;;;;;;;10.75;7.10;;;12.20;99.90;;;;;;5001166;28;20031;-64
2023/09/24 00:47:44;;;;;;;9.40;6.38;;;12.20;99.90;;;;;;5001614;28;20102;-64
2023/09/24 00:50:10;;;;;;;5.72;5.15;;;12.20;99.90;;;;;;5000444;28;20691;-64
2023/09/24 00:52:36;;;;;;;12.88;6.47;;;12.20;99.90;;;;;;5065027;28;20046;-64
2023/09/24 00:55:04;;;;;;;7.68;5.30;;;12.10;99.90;;;;;;5051408;28;20046;-64
2023/09/24 00:57:31;;;;;;;7.15;4.35;;;12.10;99.90;;;;;;5073361;28;20046;-64
2023/09/24 00:59:58;;;;;;;6.22;3.78;;;12.10;99.90;;;;;;5002988;28;20042;-64
2023/09/24 01:02:25;;;;;;;6.40;3.15;;;12.00;99.90;;;;;;5003675;28;20433;-64
2023/09/24 01:04:53;;;;;;;8.35;3.30;;;12.10;99.90;;;;;;5073291;28;20038;-64
2023/09/24 01:07:21;;;;;;;5.97;2.90;;;12.10;99.90;;;;;;5070751;28;20072;-64
2023/09/24 01:09:48;;;;;;;4.03;2.65;;;12.10;99.90;;;;;;5002619;28;20037;-64
2023/09/24 01:12:25;;;;;;;4.65;2.60;;;12.10;99.90;;;;;;5003279;28;20043;-64
2023/09/24 01:14:53;;;;;;;3.78;2.08;;;12.10;99.90;;;;;;5071544;28;20038;-64
2023/09/24 01:17:23;;;;;;;4.25;2.60;;;12.20;99.90;;;;;;5003046;28;20049;-63
2023/09/24 01:19:51;;;;;;;2.63;1.90;;;12.10;99.90;;;;;;5068603;28;20481;-64
2023/09/24 01:22:17;;;;;;;3.20;1.95;;;12.10;99.90;;;;;;5005384;28;20419;-64
2023/09/24 01:24:42;;;;;;;2.38;1.88;;;12.10;99.90;;;;;;5071917;28;20049;-64
2023/09/24 01:27:08;;;;;;;2.25;2.05;;;12.10;99.90;;;;;;5073119;28;20042;-64
2023/09/24 01:29:35;;;;;;;6.80;1.90;;;12.10;99.90;;;;;;5071668;28;20392;-64
2023/09/24 01:32:01;;;;;;;3.78;1.92;;;12.00;99.90;;;;;;5072214;28;20515;-64
2023/09/24 01:34:26;;;;;;;3.78;2.30;;;12.00;99.90;;;;;;5073965;28;20057;-64
2023/09/24 01:36:53;;;;;;;3.97;2.40;;;12.00;99.90;;;;;;5076349;28;20560;-64
2023/09/24 01:39:25;;;;;;;2.72;2.00;;;12.00;99.90;;;;;;5068416;28;20046;-64
2023/09/24 01:41:51;;;;;;;4.00;2.38;;;12.00;99.90;;;;;;5072252;28;20046;-64
2023/09/24 01:44:20;;;;;;;5.22;2.88;;;12.00;99.90;;;;;;5000398;28;20034;-64
2023/09/24 01:46:47;;;;;;;5.10;3.05;;;11.90;99.90;;;;;;5070302;28;20053;-64
2023/09/24 01:49:13;;;;;;;5.60;3.20;;;11.90;99.90;;;;;;5066877;28;20038;-64
2023/09/24 01:51:39;;;;;;;9.82;3.38;;;12.00;99.90;;;;;;5066708;28;20668;-64
2023/09/24 01:54:05;;;;;;;9.10;4.03;;;12.00;99.90;;;;;;5051941;28;20115;-64
2023/09/24 01:56:30;;;;;;;15.50;4.20;;;12.00;99.90;;;;;;5001534;28;20038;-64
2023/09/24 01:58:59;;;;;;;4.60;3.75;;;12.00;99.90;;;;;;5066930;28;20553;-64
2023/09/24 02:01:24;;;;;;;12.82;4.05;;;12.00;99.90;;;;;;5071642;28;20042;-64
2023/09/24 02:03:50;;;;;;;7.68;4.00;;;12.00;99.90;;;;;;5003422;28;20119;-64
2023/09/24 02:06:15;;;;;;;7.65;3.75;;;12.10;99.90;;;;;;5068288;28;20509;-64
2023/09/24 02:08:41;;;;;;;7.60;4.03;;;12.00;99.90;;;;;;5068572;28;20102;-64
2023/09/24 02:11:07;;;;;;;5.57;3.92;;;12.10;99.90;;;;;;5068826;28;20038;-64
2023/09/24 02:13:32;;;;;;;4.80;4.32;;;12.00;99.90;;;;;;5070847;28;20161;-64
2023/09/24 02:16:01;;;;;;;4.38;4.00;;;12.00;99.90;;;;;;5072314;28;20128;-64
2023/09/24 02:18:32;;;;;;;3.85;3.53;;;12.00;99.90;;;;;;5069119;28;20038;-64
2023/09/24 02:20:59;;;;;;;6.40;4.00;;;11.90;99.90;;;;;;5071466;28;20061;-64
2023/09/24 02:23:25;;;;;;;6.63;4.13;;;11.90;99.90;;;;;;5052146;28;20046;-64
2023/09/24 02:25:51;;;;;;;5.00;4.50;;;11.80;99.90;;;;;;5067650;28;20042;-64
2023/09/24 02:28:18;;;;;;;4.35;4.00;;;11.80;99.90;;;;;;5068560;28;20042;-64
2023/09/24 02:30:44;;;;;;;4.68;3.80;;;11.80;99.90;;;;;;5069569;28;20045;-64
2023/09/24 02:33:10;;;;;;;5.47;4.20;;;11.80;99.90;;;;;;5068431;28;20499;-64
2023/09/24 02:35:36;;;;;;;7.15;3.75;;;11.80;99.90;;;;;;5068107;28;20041;-64
2023/09/24 02:38:02;;;;;;;5.35;4.28;;;11.70;99.90;;;;;;5064918;28;20046;-64
2023/09/24 02:40:28;;;;;;;4.97;4.07;;;11.70;99.90;;;;;;5069640;28;20046;-64
2023/09/24 02:42:58;;;;;;;5.40;3.70;;;11.70;99.90;;;;;;5071907;28;20388;-64
2023/09/24 02:45:26;;;;;;;4.68;3.58;;;11.70;99.90;;;;;;5068255;28;20038;-63
2023/09/24 02:47:52;;;;;;;5.68;4.13;;;11.70;99.90;;;;;;5067729;28;20099;-64
2023/09/24 02:50:28;;;;;;;4.72;4.30;;;11.70;99.90;;;;;;5000504;28;20042;-64
2023/09/24 02:52:56;;;;;;;6.00;4.68;;;11.60;99.90;;;;;;4998641;28;20069;-64
2023/09/24 02:55:23;;;;;;;6.97;4.18;;;11.60;99.90;;;;;;5067816;28;20476;-64
2023/09/24 02:57:53;;;;;;;10.23;4.50;;;11.60;99.90;;;;;;4999800;28;20391;-64
2023/09/24 03:00:26;;;;;;;4.45;3.35;;;11.50;99.90;;;;;;5067317;28;20054;-64
2023/09/24 03:02:58;;;;;;;4.25;3.85;;;11.60;99.90;;;;;;5001656;28;20088;-64
2023/09/24 03:05:24;;;;;;;10.35;3.83;;;11.50;99.90;;;;;;5070235;28;20056;-64
2023/09/24 03:07:52;;;;;;;10.48;3.92;;;11.50;99.90;;;;;;5001922;28;20034;-64
2023/09/24 03:10:18;;;;;;;6.43;4.05;;;11.50;99.90;;;;;;5069669;28;20041;-64
2023/09/24 03:12:45;;;;;;;6.00;3.75;;;11.50;99.90;;;;;;5001360;28;20041;-64
2023/09/24 03:15:11;;;;;;;6.57;3.80;;;11.50;99.90;;;;;;5065867;28;20050;-64
2023/09/24 03:17:41;;;;;;;4.53;3.90;;;11.50;99.90;;;;;;5068465;28;20052;-63
2023/09/24 03:20:15;;;;;;;4.47;3.58;;;11.50;99.90;;;;;;5066686;28;20072;-63
2023/09/24 03:22:43;;;;;;;5.82;3.95;;;11.40;99.90;;;;;;5003340;28;21575;-63
2023/09/24 03:25:11;;;;;;;4.95;3.70;;;11.40;99.90;;;;;;5003305;28;20690;-64
2023/09/24 03:27:38;;;;;;;4.85;3.63;;;11.30;99.90;;;;;;5070120;28;20052;-64
2023/09/24 03:30:13;;;;;;;7.45;4.00;;;11.30;99.90;;;;;;5065115;28;20377;-64
2023/09/24 03:32:40;;;;;;;7.70;4.10;;;11.30;99.90;;;;;;5067006;28;20499;-64
2023/09/24 03:35:10;;;;;;;6.00;4.00;;;11.30;99.90;;;;;;5067148;28;20042;-64
2023/09/24 03:37:41;;;;;;;6.82;3.70;;;11.20;99.90;;;;;;4981097;28;20033;-64
2023/09/24 03:40:27;;;;;;;4.75;3.53;;;11.30;99.90;;;;;;5082551;28;20045;-64
2023/09/24 03:42:53;;;;;;;7.40;3.90;;;11.20;99.90;;;;;;5067683;28;20091;-64
2023/09/24 03:45:23;;;;;;;6.72;3.92;;;11.20;99.90;;;;;;4996307;28;20045;-63
2023/09/24 03:47:49;;;;;;;6.65;3.53;;;11.20;99.90;;;;;;5066249;28;20111;-63
2023/09/24 03:50:19;;;;;;;7.28;3.80;;;11.10;99.90;;;;;;4998406;28;20051;-63
2023/09/24 03:52:47;;;;;;;6.32;3.92;;;11.10;99.90;;;;;;5066159;28;20053;-64
2023/09/24 03:55:13;;;;;;;6.95;4.05;;;11.10;99.90;;;;;;5066512;28;20077;-64
2023/09/24 03:57:39;;;;;;;8.55;3.70;;;11.00;99.90;;;;;;5066647;28;20038;-64
2023/09/24 04:00:11;;;;;;;7.25;4.13;;;11.00;99.90;;;;;;5065769;28;20046;-64
2023/09/24 04:02:39;;;;;;;4.45;3.40;;;11.00;99.90;;;;;;5067121;28;20067;-63
2023/09/24 04:05:08;;;;;;;6.45;4.45;;;11.00;99.90;;;;;;5067786;28;20050;-63
2023/09/24 04:07:37;;;;;;;6.75;3.90;;;11.00;99.90;;;;;;5002713;28;20091;-63
2023/09/24 04:10:04;;;;;;;7.57;4.28;;;10.90;99.90;;;;;;5070598;28;20433;-64
2023/09/24 04:12:33;;;;;;;10.45;4.80;;;10.90;99.90;;;;;;5003636;28;20034;-63
2023/09/24 04:15:00;;;;;;;7.90;4.07;;;10.90;99.90;;;;;;4998805;28;20038;-64
2023/09/24 04:17:25;;;;;;;8.13;3.88;;;10.90;99.90;;;;;;5065618;28;20045;-64
2023/09/24 04:19:52;;;;;;;8.93;3.63;;;10.90;99.90;;;;;;4998001;28;20499;-64
2023/09/24 04:22:18;;;;;;;7.90;3.72;;;10.80;99.90;;;;;;4999125;28;20093;-64
2023/09/24 04:24:43;;;;;;;4.70;3.78;;;10.90;99.90;;;;;;4999095;28;20467;-64
2023/09/24 04:27:09;;;;;;;6.65;4.00;;;10.90;99.90;;;;;;5069347;28;20117;-64
2023/09/24 04:29:35;;;;;;;7.57;4.10;;;10.90;99.90;;;;;;5003088;28;20073;-63
2023/09/24 04:32:00;;;;;;;6.43;3.40;;;10.80;99.90;;;;;;5005287;28;20072;-63
2023/09/24 04:34:26;;;;;;;11.00;4.25;;;10.80;99.90;;;;;;5071124;28;20069;-63
2023/09/24 04:36:51;;;;;;;5.25;3.90;;;10.80;99.90;;;;;;5071319;28;20053;-63
2023/09/24 04:39:18;;;;;;;7.50;4.57;;;10.80;99.90;;;;;;5000773;28;20037;-63
2023/09/24 04:41:44;;;;;;;7.30;4.18;;;10.70;99.90;;;;;;5072138;28;20046;-63
2023/09/24 04:44:10;;;;;;;8.88;4.18;;;10.70;99.90;;;;;;5002495;28;20064;-63
2023/09/24 04:46:36;;;;;;;9.32;4.65;;;10.70;99.90;;;;;;5010352;28;20062;-63
2023/09/24 04:49:05;;;;;;;8.43;4.65;;;10.70;99.90;;;;;;5066517;28;20034;-63
2023/09/24 04:51:32;;;;;;;6.90;4.20;;;10.70;99.90;;;;;;5070050;28;20038;-63
2023/09/24 04:54:00;;;;;;;6.75;4.53;;;10.70;99.90;;;;;;5069262;28;20046;-63
2023/09/24 04:56:26;;;;;;;8.38;4.72;;;10.60;99.90;;;;;;5071105;28;20061;-63
2023/09/24 04:58:52;;;;;;;5.75;4.35;;;10.60;99.90;;;;;;5070437;28;20052;-63
2023/09/24 05:01:17;;;;;;;10.68;4.45;;;10.60;99.90;;;;;;5072272;28;20045;-63
2023/09/24 05:03:43;;;;;;;8.90;5.53;;;10.60;99.90;;;;;;5070365;28;20168;-63
2023/09/24 05:06:08;;;;;;;7.07;4.88;;;10.60;99.90;;;;;;5073388;28;20037;-63
2023/09/24 05:08:34;;;;;;;12.05;5.32;;;10.70;99.90;;;;;;5002369;28;20120;-63
2023/09/24 05:11:00;;;;;;;7.57;4.75;;;10.70;99.90;;;;;;5058803;28;20052;-63
2023/09/24 05:13:26;;;;;;;5.72;4.35;;;10.60;99.90;;;;;;5055219;28;20506;-63
2023/09/24 05:16:00;;;;;;;7.53;4.63;;;10.70;99.90;;;;;;5071236;28;20050;-63
2023/09/24 05:18:26;;;;;;;8.13;5.30;;;10.60;99.90;;;;;;5000425;28;20046;-63
2023/09/24 05:20:52;;;;;;;7.32;5.00;;;10.60;99.90;;;;;;5072208;28;20050;-63
2023/09/24 05:23:17;;;;;;;9.75;6.03;;;10.60;99.90;;;;;;5070079;28;20056;-63
2023/09/24 05:25:44;;;;;;;12.45;5.38;;;10.60;99.90;;;;;;5002689;28;20077;-63
2023/09/24 05:28:09;;;;;;;9.98;5.22;;;10.60;99.90;;;;;;5072214;28;20081;-63
2023/09/24 05:30:35;;;;;;;13.50;5.80;;;10.60;99.90;;;;;;5074325;28;21933;-63
2023/09/24 05:33:01;;;;;;;11.15;5.85;;;10.60;99.90;;;;;;5073604;28;20088;-63
2023/09/24 05:35:27;;;;;;;16.55;5.90;;;10.60;99.90;;;;;;5071214;28;20449;-63
2023/09/24 05:37:53;;;;;;;8.32;5.85;;;10.60;99.90;;;;;;5071367;28;20412;-63
2023/09/24 05:40:18;;;;;;;11.63;5.78;;;10.60;99.90;;;;;;5068560;28;20040;-63
2023/09/24 05:42:45;;;;;;;9.10;5.82;;;10.70;99.90;;;;;;5070924;28;20193;-63
2023/09/24 05:45:10;;;;;;;8.15;5.65;;;10.70;99.90;;;;;;4999579;28;20123;-63
2023/09/24 05:47:36;;;;;;;9.38;6.25;;;10.70;99.90;;;;;;5063627;28;20052;-63
2023/09/24 05:50:03;;;;;;;8.90;6.13;;;10.70;99.90;;;;;;5064658;28;20357;-63
2023/09/24 05:52:29;;;;;;;11.35;5.68;;;10.70;99.90;;;;;;5001930;28;20481;-63
2023/09/24 05:54:55;;;;;;;9.50;5.78;;;10.80;99.90;;;;;;4999106;28;20073;-63
2023/09/24 05:57:21;;;;;;;6.25;5.10;;;10.80;99.90;;;;;;5050061;28;20404;-63
2023/09/24 05:59:46;;;;;;;8.70;5.88;;;10.80;99.90;;;;;;5002400;28;20085;-63
2023/09/24 06:02:12;;;;;;;8.23;5.82;;;11.00;99.90;;;;;;5068469;28;20042;-63
2023/09/24 06:04:38;;;;;;;12.85;5.20;;;11.50;99.90;;;;;;5002465;28;20476;-64
2023/09/24 06:07:05;;;;;;;5.32;4.43;;;12.50;99.90;;;;;;5074531;28;20046;-64
2023/09/24 06:09:31;;;;;;;4.63;3.25;;;13.60;99.90;;;;;;5071240;28;20046;-64
2023/09/24 06:11:57;;;;;;;6.82;3.63;;;14.60;99.90;;;;;;5068610;28;20043;-64
2023/09/24 06:14:22;;;;;;;7.05;3.33;;;15.30;99.90;;;;;;5069347;28;20046;-64
2023/09/24 06:16:48;;;;;;;3.88;2.65;;;16.00;99.90;;;;;;5070207;28;20054;-64
2023/09/24 06:19:14;;;;;;;7.68;3.33;;;16.60;99.90;;;;;;5002446;28;20129;-64
2023/09/24 06:21:39;;;;;;;6.47;3.60;;;16.80;99.90;;;;;;5071270;28;20046;-64
2023/09/24 06:24:06;;;;;;;6.53;3.42;;;16.80;99.90;;;;;;5001911;28;20038;-64
2023/09/24 06:26:32;;;;;;;3.97;2.97;;;17.20;99.90;;;;;;5075252;28;20369;-64
2023/09/24 06:28:57;;;;;;;6.85;3.13;;;17.50;99.90;;;;;;4999175;28;20084;-64
2023/09/24 06:31:23;;;;;;;4.97;3.10;;;18.20;99.90;;;;;;5070108;28;20037;-64
2023/09/24 06:33:49;;;;;;;5.38;3.30;;;18.90;99.90;;;;;;4998807;28;20041;-64
2023/09/24 06:36:15;;;;;;;4.93;3.05;;;19.60;99.90;;;;;;5070643;28;20038;-64
2023/09/24 06:38:41;;;;;;;5.45;3.10;;;20.30;99.90;;;;;;5065330;28;20091;-64
2023/09/24 06:41:07;;;;;;;5.95;3.33;;;20.80;99.90;;;;;;5071227;28;20042;-64
2023/09/24 06:43:33;;;;;;;5.45;3.05;;;21.10;99.90;;;;;;5070723;28;20780;-64
2023/09/24 06:46:02;;;;;;;5.10;3.10;;;20.80;99.90;;;;;;5067972;28;20388;-64
2023/09/24 06:48:28;;;;;;;5.22;3.05;;;20.00;99.90;;;;;;5003027;28;20495;-64
2023/09/24 06:50:56;;;;;;;5.00;3.40;;;19.50;99.90;;;;;;4999060;28;20057;-64
2023/09/24 06:53:23;;;;;;;5.72;2.80;;;18.90;99.90;;;;;;5060649;28;20046;-64
2023/09/24 06:55:48;;;;;;;4.78;3.15;;;18.50;99.90;;;;;;5067039;28;20106;-64
2023/09/24 06:58:14;;;;;;;7.63;4.03;;;18.10;99.90;;;;;;5066001;28;20050;-64
2023/09/24 07:00:40;;;;;;;5.60;3.50;;;17.60;99.90;;;;;;5071920;28;20050;-64
2023/09/24 07:03:05;;;;;;;6.30;3.85;;;17.10;99.90;;;;;;5071413;28;20470;-64
2023/09/24 07:05:31;;;;;;;5.10;3.28;;;16.50;99.90;;;;;;4999028;28;20034;-64
2023/09/24 07:07:57;;;;;;;5.95;3.80;;;16.00;99.90;;;;;;5065643;28;20538;-64
2023/09/24 07:10:23;;;;;;;5.05;3.42;;;15.60;99.90;;;;;;4996068;28;20846;-64
2023/09/24 07:12:50;;;;;;;6.32;4.07;;;15.10;99.90;;;;;;5067412;28;20049;-63
2023/09/24 07:15:16;;;;;;;7.38;3.75;;;14.80;99.90;;;;;;4994777;28;20042;-63
2023/09/24 07:17:42;;;;;;;5.82;4.18;;;14.60;99.90;;;;;;5005757;28;20060;-65
2023/09/24 07:20:08;;;;;;;7.63;4.32;;;14.30;99.90;;;;;;5068893;28;20065;-65
2023/09/24 07:22:34;;;;;;;10.77;4.10;;;14.20;99.90;;;;;;5048532;28;20045;-65
2023/09/24 07:25:00;;;;;;;8.55;4.47;;;14.00;99.90;;;;;;5067988;28;20385;-65
2023/09/24 07:27:25;;;;;;;6.53;4.32;;;13.90;99.90;;;;;;5067256;28;20134;-65
2023/09/24 07:29:51;;;;;;;6.63;4.60;;;13.90;99.90;;;;;;5067122;28;20038;-66
2023/09/24 07:32:17;;;;;;;6.93;3.80;;;13.80;99.90;;;;;;5069756;28;20073;-66
2023/09/24 07:34:46;;;;;;;5.07;4.05;;;13.70;99.90;;;;;;4997096;28;20050;-63
2023/09/24 07:37:12;;;;;;;8.13;3.92;;;13.70;99.90;;;;;;5003395;28;20399;-65
2023/09/24 07:39:38;;;;;;;7.93;4.22;;;13.60;99.90;;;;;;5066582;28;20556;-62
2023/09/24 07:42:03;;;;;;;8.25;4.75;;;13.50;99.90;;;;;;5003572;28;20065;-63
2023/09/24 07:44:29;;;;;;;6.32;4.00;;;13.50;99.90;;;;;;5068847;28;20046;-63
2023/09/24 07:46:54;;;;;;;7.70;4.68;;;13.40;99.90;;;;;;5066321;28;20385;-63
2023/09/24 07:49:20;;;;;;;8.05;4.63;;;13.40;99.90;;;;;;5065650;28;20132;-64
2023/09/24 07:51:46;;;;;;;6.85;4.78;;;13.40;99.90;;;;;;5055633;28;20046;-64
2023/09/24 07:54:13;;;;;;;9.30;4.68;;;13.40;99.90;;;;;;5059466;28;20050;-64
2023/09/24 07:56:41;;;;;;;6.93;4.72;;;13.40;99.90;;;;;;5059628;28;20496;-65
2023/09/24 07:59:07;;;;;;;6.63;4.70;;;13.50;99.90;;;;;;4996806;28;20129;-65
2023/09/24 08:01:33;;;;;;;6.20;4.28;;;13.50;99.90;;;;;;4996192;28;20049;-65
2023/09/24 08:03:59;;;;;;;6.60;4.10;;;13.50;99.90;;;;;;4999533;28;20380;-65
2023/09/24 08:06:28;;;;;;;8.85;5.05;;;13.50;99.90;;;;;;5069296;28;20048;-65
2023/09/24 08:08:54;;;;;;;6.40;3.85;;;13.60;99.90;;;;;;5065449;28;20099;-65
2023/09/24 08:11:19;;;;;;;7.35;4.50;;;13.60;99.90;;;;;;5067321;28;20508;-65
2023/09/24 08:13:45;;;;;;;4.95;3.72;;;13.60;99.90;;;;;;4997823;28;20048;-65
2023/09/24 08:16:10;;;;;;;6.75;3.97;;;13.70;99.90;;;;;;5065927;28;20049;-65
2023/09/24 08:18:36;;;;;;;6.50;3.85;;;13.70;99.90;;;;;;5063542;28;20050;-65
2023/09/24 08:21:01;;;;;;;8.00;4.57;;;13.80;99.90;;;;;;5002456;28;20042;-65
2023/09/24 08:23:27;;;;;;;8.70;4.10;;;13.90;99.90;;;;;;5066444;28;20049;-65
2023/09/24 08:25:53;;;;;;;7.60;4.47;;;13.90;99.90;;;;;;5007549;28;20046;-65
2023/09/24 08:28:18;;;;;;;6.72;3.72;;;13.90;99.90;;;;;;5069828;28;20049;-65
2023/09/24 08:30:45;;;;;;;7.15;3.72;;;14.00;99.90;;;;;;5065520;28;20041;-65
2023/09/24 08:33:11;;;;;;;10.73;4.93;;;14.00;99.90;;;;;;4997900;28;20065;-65
2023/09/24 08:35:38;;;;;;;7.13;4.90;;;14.10;99.90;;;;;;5067205;28;20535;-65
2023/09/24 08:38:04;;;;;;;8.55;3.80;;;14.30;99.90;;;;;;5073258;28;20061;-65
2023/09/24 08:40:31;;;;;;;11.43;4.22;;;14.30;99.90;;;;;;4998878;28;20419;-65
2023/09/24 08:42:57;;;;;;;5.95;3.70;;;14.40;99.90;;;;;;5066400;28;20071;-65
2023/09/24 08:45:26;;;;;;;7.28;3.97;;;14.50;99.90;;;;;;5063740;28;20492;-65
2023/09/24 08:47:52;;;;;;;5.57;3.92;;;14.60;99.90;;;;;;4996407;28;20034;-65
2023/09/24 08:50:18;;;;;;;9.55;3.53;;;14.60;99.90;;;;;;5068399;28;20038;-65
2023/09/24 08:52:45;;;;;;;11.15;3.60;;;14.80;99.90;;;;;;5066577;28;20056;-65
2023/09/24 08:55:13;;;;;;;6.32;2.80;;;14.80;99.90;;;;;;5068073;28;20066;-65
2023/09/24 08:57:40;;;;;;;7.35;3.33;;;14.90;99.90;;;;;;5001003;28;20118;-65
2023/09/24 09:00:09;;;;;;;9.73;3.00;;;15.00;99.90;;;;;;4998631;28;20046;-65
2023/09/24 09:02:35;;;;;;;6.43;2.83;;;15.10;99.90;;;;;;5064574;28;20038;-65
2023/09/24 09:05:04;;;;;;;6.82;2.97;;;15.30;99.90;;;;;;5061794;28;20050;-65
2023/09/24 09:07:29;;;;;;;5.70;2.90;;;15.40;99.90;;;;;;4996524;28;20075;-65
2023/09/24 09:09:59;;;;;;;8.32;2.80;;;15.50;99.90;;;;;;4998183;28;20513;-65
2023/09/24 09:12:28;;;;;;;7.40;2.95;;;15.60;99.90;;;;;;4997361;28;21076;-65
2023/09/24 09:14:55;;;;;;;9.32;3.78;;;15.70;99.90;;;;;;5004276;28;20129;-65
2023/09/24 09:17:21;;;;;;;8.15;3.45;;;15.80;99.90;;;;;;5068687;28;20041;-65
2023/09/24 09:19:56;;;;;;;9.65;3.53;;;15.90;99.90;;;;;;5064889;28;20176;-65
2023/09/24 09:22:22;;;;;;;7.15;3.10;;;16.00;99.90;;;;;;4999584;28;20053;-65
2023/09/24 09:25:04;;;;;;;6.13;3.10;;;16.10;99.90;;;;;;4999832;28;20050;-65
2023/09/24 09:27:37;;;;;;;7.10;2.38;;;16.00;99.90;;;;;;5002908;28;20045;-65
2023/09/24 09:30:17;;;;;;;6.78;2.80;;;16.10;99.90;;;;;;4995958;28;20046;-65
2023/09/24 09:32:44;;;;;;;4.68;2.42;;;16.20;99.90;;;;;;5084584;28;20042;-65
2023/09/24 09:35:10;;;;;;;5.55;2.20;;;16.30;99.90;;;;;;5069908;28;20157;-65
2023/09/24 09:37:39;;;;;;;6.60;2.28;;;16.40;99.90;;;;;;5073899;28;20049;-65
2023/09/24 09:40:06;;;;;;;5.13;2.05;;;16.40;99.90;;;;;;4997877;28;20122;-65
2023/09/24 09:42:33;;;;;;;4.55;2.30;;;16.50;99.90;;;;;;5000145;28;20056;-65
2023/09/24 09:45:09;;;;;;;5.28;2.00;;;16.60;99.90;;;;;;5000550;28;20053;-65
2023/09/24 09:47:49;;;;;;;5.68;1.50;;;16.90;99.90;;;;;;5000211;28;20400;-65
2023/09/24 09:50:21;;;;;;;4.15;1.58;;;17.00;99.90;;;;;;5066440;28;20107;-65
2023/09/24 09:52:51;;;;;;;6.50;2.28;;;17.20;99.90;;;;;;4996225;28;21143;-65
2023/09/24 09:55:17;;;;;;;5.63;2.10;;;17.30;99.90;;;;;;4999367;28;20065;-65
2023/09/24 09:57:43;;;;;;;6.75;2.00;;;17.40;99.90;;;;;;4998666;28;20074;-65
2023/09/24 10:00:10;;;;;;;5.20;2.33;;;17.50;99.90;;;;;;4999144;28;20034;-65
2023/09/24 10:02:37;;;;;;;5.03;2.45;;;17.50;99.90;;;;;;4998911;28;20056;-65
2023/09/24 10:05:03;;;;;;;6.53;1.98;;;17.60;99.90;;;;;;5002817;28;20077;-65
2023/09/24 10:07:29;;;;;;;3.97;2.05;;;17.60;99.90;;;;;;4997679;28;20021;-65
2023/09/24 10:09:55;;;;;;;4.05;1.65;;;17.70;99.90;;;;;;5068112;28;20691;-65
2023/09/24 10:12:38;;;;;;;6.63;2.33;;;17.80;99.90;;;;;;5066594;28;20105;-65
2023/09/24 10:15:36;;;;;;;6.00;2.30;;;17.90;99.90;;;;;;5054342;28;20512;-65
2023/09/24 10:18:11;;;;;;;9.20;2.08;;;18.00;99.90;;;;;;5004498;28;20088;-65
2023/09/24 10:20:48;;;;;;;4.57;2.40;;;18.00;99.90;;;;;;4997585;28;20099;-65
2023/09/24 10:23:29;;;;;;;3.70;1.65;;;18.20;99.90;;;;;;4996483;28;20611;-65
2023/09/24 10:26:00;;;;;;;2.45;1.20;;;18.30;99.90;;;;;;5063941;28;20042;-65
2023/09/24 10:28:49;;;;;;;4.05;1.10;;;18.40;99.90;;;;;;5000114;28;20125;-65
2023/09/24 10:31:17;;;;;;;5.22;2.30;;;18.50;99.90;;;;;;5067364;28;20057;-65
2023/09/24 10:33:53;;;;;;;6.10;1.55;;;18.60;99.90;;;;;;4998700;28;20042;-65
2023/09/24 10:36:28;;;;;;;4.53;1.58;;;18.70;99.90;;;;;;5004403;28;20087;-65
2023/09/24 10:39:00;;;;;;;3.10;1.10;;;18.80;99.90;;;;;;5064839;28;20077;-65
2023/09/24 10:41:26;;;;;;;4.07;1.58;;;18.90;99.90;;;;;;5067732;28;20069;-65
2023/09/24 10:44:26;;;;;;;3.78;1.23;;;19.10;99.90;;;;;;5009487;28;20430;-65
2023/09/24 10:46:52;;;;;;;3.38;1.40;;;19.30;99.90;;;;;;5079213;28;20046;-65
2023/09/24 10:49:21;;;;;;;4.65;1.45;;;19.50;99.90;;;;;;5000090;28;20077;-65
2023/09/24 10:51:49;;;;;;;2.90;1.08;;;19.50;99.90;;;;;;5084206;28;20049;-65
2023/09/24 10:54:16;;;;;;;5.22;1.88;;;19.70;99.90;;;;;;4993765;28;20045;-65
2023/09/24 10:56:49;;;;;;;2.30;1.10;;;19.70;99.90;;;;;;5002752;28;20361;-65
2023/09/24 10:59:15;;;;;;;2.25;0.90;;;19.80;99.90;;;;;;5068728;28;20508;-66
2023/09/24 11:01:42;;;;;;;3.58;1.70;;;19.70;99.90;;;;;;5081475;28;20057;-66
2023/09/24 11:04:09;;;;;;;5.60;1.80;;;19.70;99.90;;;;;;5073380;28;20497;-65
2023/09/24 11:06:35;;;;;;;3.33;0.90;;;19.70;99.90;;;;;;5065670;28;20038;-65
2023/09/24 11:09:22;;;;;;;3.33;1.00;;;19.70;99.90;;;;;;5065562;28;20551;-65
2023/09/24 11:11:48;;;;;;;2.30;0.88;;;19.90;99.90;;;;;;5064774;28;20061;-65
2023/09/24 11:14:14;;;;;;;2.60;1.00;;;19.90;99.90;;;;;;5002436;28;20065;-65
2023/09/24 11:16:40;;;;;;;5.90;1.25;;;19.90;99.90;;;;;;5070877;28;20050;-66
2023/09/24 11:19:05;;;;;;;4.05;1.67;;;19.90;99.90;;;;;;5003793;28;20034;-66
2023/09/24 11:21:31;;;;;;;4.65;1.30;;;20.00;99.90;;;;;;5063033;28;20048;-65
2023/09/24 11:23:57;;;;;;;2.22;0.77;;;20.00;99.90;;;;;;5059530;28;20034;-65
2023/09/24 11:26:29;;;;;;;3.55;1.08;;;19.90;99.90;;;;;;5065033;28;20503;-66
2023/09/24 11:28:57;;;;;;;5.63;0.98;;;19.90;99.90;;;;;;4994563;28;20758;-66
2023/09/24 11:31:24;;;;;;;4.05;1.60;;;19.90;99.90;;;;;;5001489;28;20115;-66
2023/09/24 11:33:56;;;;;;;3.63;1.17;;;19.90;99.90;;;;;;5006043;28;20084;-66
2023/09/24 11:36:27;;;;;;;2.75;1.08;;;19.90;99.90;;;;;;4998471;28;20361;-66
2023/09/24 11:39:03;;;;;;;4.53;1.20;;;20.00;99.90;;;;;;5063047;28;20054;-66
2023/09/24 11:41:28;;;;;;;;;;;20.20;99.90;;;;;;5066903;28;20074;-66
2023/09/24 11:43:55;;;;;;;;;;;20.10;99.90;;;;;;5067863;28;19960;-66
2023/09/24 11:46:24;;;;;;;4.63;0.82;;;20.20;99.90;;;;;;5066605;28;19927;-66
2023/09/24 11:48:49;;;;;;;2.22;0.80;;;20.20;99.90;;;;;;5061395;28;20098;-66
2023/09/24 11:51:15;;;;;;;4.60;0.80;;;20.30;99.90;;;;;;5053137;28;20042;-66
2023/09/24 11:53:41;;;;;;;2.90;1.13;;;20.30;99.90;;;;;;5064175;28;20042;-66
2023/09/24 11:56:07;;;;;;;2.50;0.82;;;20.20;99.90;;;;;;5066280;28;20048;-66
2023/09/24 11:58:33;;;;;;;3.72;1.10;;;20.20;99.90;;;;;;5064052;28;20041;-67
2023/09/24 12:00:58;;;;;;;3.92;0.85;;;20.10;99.90;;;;;;5003148;28;20037;-69
2023/09/24 12:03:25;;;;;;;2.00;0.65;;;20.20;99.90;;;;;;5001594;28;20041;-68
2023/09/24 12:05:51;;;;;;;3.00;1.00;;;20.10;99.90;;;;;;5060805;28;20041;-68
2023/09/24 12:08:17;;;;;;;2.47;0.70;;;20.00;99.90;;;;;;4997545;28;20030;-67
2023/09/24 12:10:46;;;;;;;3.13;1.08;;;20.10;99.90;;;;;;5066982;28;20507;-67
2023/09/24 12:13:12;;;;;;;4.25;1.08;;;20.10;99.90;;;;;;5066167;28;20042;-68
2023/09/24 12:15:38;;;;;;;6.03;1.02;;;20.20;99.90;;;;;;4999028;28;20049;-68
2023/09/24 12:18:05;;;;;;;2.92;1.00;;;20.30;99.90;;;;;;5063016;28;20395;-69
2023/09/24 12:20:35;;;;;;;3.45;1.27;;;20.30;99.90;;;;;;5065439;28;20137;-69
2023/09/24 12:23:04;;;;;;;3.72;1.13;;;20.30;99.90;;;;;;5061572;28;20041;-69
2023/09/24 12:25:30;;;;;;;4.50;1.02;;;20.20;99.90;;;;;;5065254;28;20037;-69
2023/09/24 12:27:56;;;;;;;3.00;0.80;;;20.00;99.90;;;;;;5064573;28;20041;-68
2023/09/24 12:30:23;;;;;;;5.43;1.15;;;19.90;99.90;;;;;;5071266;28;20039;-71
2023/09/24 12:32:48;;;;;;;2.55;1.13;;;19.80;99.90;;;;;;5065433;28;20117;-67
2023/09/24 12:35:14;;;;;;;4.82;1.30;;;19.80;99.90;;;;;;5010197;28;20121;-66
2023/09/24 12:37:41;;;;;;;3.13;0.90;;;19.70;99.90;;;;;;5069486;28;20111;-67
2023/09/24 12:40:09;;;;;;;2.63;1.08;;;19.50;99.90;;;;;;5070976;28;20464;-68
2023/09/24 12:42:37;;;;;;;6.47;1.02;;;19.50;99.90;;;;;;5062685;28;20042;-67
2023/09/24 12:45:05;;;;;;;3.45;1.10;;;19.50;99.90;;;;;;5063238;28;20070;-70
2023/09/24 12:47:33;;;;;;;3.35;0.70;;;19.50;99.90;;;;;;5065063;28;21334;-68